Air Resources Laboratory banner image
Air Resources Laboratory web site National Oceanic and Atmospheric Administration (NOAA)

la metar


KAEX 231153Z 13004KT 7SM OVC005 23/23 A2992 RMK AO2 SLP133 70052 T02330228
 10239 20233 53005=
KARA 231153Z 00000KT 10SM FEW100 24/23 A2993 RMK AO2 SLP134 60000 70161
 T02390228 10244 20228 55001=
KASD 231153Z AUTO 00000KT 10SM CLR 23/21 A2994 RMK AO2 SLP139 70007 T02280211
 10233 20228 53005=
KBAD 231156Z AUTO 12006KT 10SM OVC005 23/23 A2990 RMK AO2 SLP127 60019 70335
 T02280228 10228 20225 53001 $=
KBTR 231153Z 06003KT 7SM CLR 22/22 A2994 RMK AO2 SLP136 T02220217 10228 20217
 53000=
KBVE 231151Z AUTO 11003KT 10SM FEW028 27/23 A2995 RMK AO2 SLP141 70003
 T02720233 10278 20272 53006=
KCWF 231147Z 00000KT 10SM SCT022 24/24 A2991=
KDRI 231155Z AUTO 12003KT 10SM SCT075 OVC090 24/23 A2993 RMK AO2 70037
 T02410233 10243 20238=
KDTN 231153Z 11007KT 10SM OVC006 24/23 A2991 RMK AO2 RAB02E21 SLP125 P0002
 60061 70363 T02390228 10239 20222 55000=
KESF 231153Z AUTO 12003KT 10SM OVC003 23/23 A2993 RMK AO2 SLP133 70035
 T02280228 10239 20228 53002 $=
KHUM 231150Z 00000KT 7SM SKC 24/23 A2994=
KIER 231155Z AUTO 11003KT 7SM OVC006 23/23 A2992 RMK AO2 60012 70035 T02320230
 10238 20230=
KLCH 231153Z 11004KT 9SM FEW095 26/24 A2990 RMK AO2 SLP132 70087 T02560244
 10256 20250 53001=
KLFT 231153Z 00000KT 10SM FEW002 24/24 A2993 RMK AO2 SLP133 70006 T02390239
 10244 20239 51007=
KMLU 231153Z 00000KT 4SM BR OVC003 23/23 A2994 RMK AO2 SLP138 60000 70110
 T02330228 10239 20233 53003=
KMSY 231153Z 00000KT 10SM FEW030 25/24 A2994 RMK AO2 SLP140 70012 T02500239
 10267 20244 53005 $=
KNEW 231153Z AUTO 13004KT 10SM CLR 26/23 A2994 RMK AO2 SLP133 70039 T02610233
 10267 20261 53005=
KPOE 231208Z AUTO 17004KT 10SM BKN004 BKN015 BKN060 OVC130 23/22 A2991 RMK AO2
 CIG 004V060 BKN004 V SCT SLP128=
KPTN 231156Z AUTO 17004KT 10SM CLR 24/24 A2994 RMK AO2 SLP139 T02390239 10239
 20233 53006=
KSHV 231156Z 12008KT 10SM SCT004 BKN006 OVC011 23/23 A2990 RMK AO2 RAE01 SLP120
 P0000 60036 70417 T02330233 10233 20233 53001=
KTVR 231153Z AUTO 00000KT 10SM CLR 23/22 A2994 RMK AO2 SLP145 T02280217 10233
 20217 55000=